sensor_id;sensor_type;location;lat;lon;timestamp;P1;durP1;ratioP1;P2;durP2;ratioP2
70414;SDS011;57837;52.064;113.478;2023-03-12T00:00:46;33.60;;;19.27;;
70414;SDS011;57837;52.064;113.478;2023-03-12T00:03:51;19.92;;;10.43;;
70414;SDS011;57837;52.064;113.478;2023-03-12T00:06:56;5.90;;;4.65;;
70414;SDS011;57837;52.064;113.478;2023-03-12T00:10:00;14.53;;;7.47;;
70414;SDS011;57837;52.064;113.478;2023-03-12T00:13:05;15.65;;;8.57;;
70414;SDS011;57837;52.064;113.478;2023-03-12T00:16:10;10.98;;;4.55;;
70414;SDS011;57837;52.064;113.478;2023-03-12T00:19:16;21.77;;;9.63;;
70414;SDS011;57837;52.064;113.478;2023-03-12T00:22:20;8.85;;;5.40;;
70414;SDS011;57837;52.064;113.478;2023-03-12T00:25:24;16.65;;;4.18;;
70414;SDS011;57837;52.064;113.478;2023-03-12T00:28:29;24.38;;;8.65;;
70414;SDS011;57837;52.064;113.478;2023-03-12T00:31:33;45.40;;;18.33;;
70414;SDS011;57837;52.064;113.478;2023-03-12T00:34:37;15.82;;;7.28;;
70414;SDS011;57837;52.064;113.478;2023-03-12T00:37:40;12.10;;;5.90;;
70414;SDS011;57837;52.064;113.478;2023-03-12T00:40:45;23.53;;;7.37;;
70414;SDS011;57837;52.064;113.478;2023-03-12T00:43:49;38.78;;;12.48;;
70414;SDS011;57837;52.064;113.478;2023-03-12T00:46:53;24.92;;;10.10;;
70414;SDS011;57837;52.064;113.478;2023-03-12T00:49:57;37.03;;;13.02;;
70414;SDS011;57837;52.064;113.478;2023-03-12T00:53:01;42.80;;;13.45;;
70414;SDS011;57837;52.064;113.478;2023-03-12T00:56:05;44.67;;;14.63;;
70414;SDS011;57837;52.064;113.478;2023-03-12T00:59:10;39.67;;;17.13;;
70414;SDS011;57837;52.064;113.478;2023-03-12T01:02:14;36.30;;;16.43;;
70414;SDS011;57837;52.064;113.478;2023-03-12T01:05:18;56.67;;;22.27;;
70414;SDS011;57837;52.064;113.478;2023-03-12T01:08:22;37.72;;;15.43;;
70414;SDS011;57837;52.064;113.478;2023-03-12T01:11:26;44.00;;;21.03;;
70414;SDS011;57837;52.064;113.478;2023-03-12T01:14:31;54.80;;;20.52;;
70414;SDS011;57837;52.064;113.478;2023-03-12T01:17:35;51.65;;;19.63;;
70414;SDS011;57837;52.064;113.478;2023-03-12T01:20:39;57.80;;;21.08;;
70414;SDS011;57837;52.064;113.478;2023-03-12T01:23:44;55.30;;;20.88;;
70414;SDS011;57837;52.064;113.478;2023-03-12T01:26:48;74.47;;;23.02;;
70414;SDS011;57837;52.064;113.478;2023-03-12T01:29:52;52.13;;;20.23;;
70414;SDS011;57837;52.064;113.478;2023-03-12T01:32:56;59.73;;;20.10;;
70414;SDS011;57837;52.064;113.478;2023-03-12T01:36:00;61.38;;;22.05;;
70414;SDS011;57837;52.064;113.478;2023-03-12T01:39:04;67.07;;;23.33;;
70414;SDS011;57837;52.064;113.478;2023-03-12T01:42:08;90.45;;;28.63;;
70414;SDS011;57837;52.064;113.478;2023-03-12T01:52:24;55.28;;;18.77;;
70414;SDS011;57837;52.064;113.478;2023-03-12T01:55:31;57.42;;;20.00;;
70414;SDS011;57837;52.064;113.478;2023-03-12T01:58:35;50.63;;;18.52;;
70414;SDS011;57837;52.064;113.478;2023-03-12T02:01:41;52.55;;;20.17;;
70414;SDS011;57837;52.064;113.478;2023-03-12T02:04:45;41.95;;;16.98;;
70414;SDS011;57837;52.064;113.478;2023-03-12T02:07:49;29.80;;;10.17;;
70414;SDS011;57837;52.064;113.478;2023-03-12T02:10:52;39.03;;;13.52;;
70414;SDS011;57837;52.064;113.478;2023-03-12T02:13:55;41.80;;;10.52;;
70414;SDS011;57837;52.064;113.478;2023-03-12T02:16:59;39.05;;;9.32;;
70414;SDS011;57837;52.064;113.478;2023-03-12T02:20:08;31.33;;;8.80;;
70414;SDS011;57837;52.064;113.478;2023-03-12T02:26:34;33.25;;;9.85;;
70414;SDS011;57837;52.064;113.478;2023-03-12T02:29:40;55.97;;;12.13;;
70414;SDS011;57837;52.064;113.478;2023-03-12T02:32:45;25.17;;;10.07;;
70414;SDS011;57837;52.064;113.478;2023-03-12T02:35:51;28.15;;;9.95;;
70414;SDS011;57837;52.064;113.478;2023-03-12T02:38:55;27.35;;;10.55;;
70414;SDS011;57837;52.064;113.478;2023-03-12T02:41:59;28.50;;;7.88;;
70414;SDS011;57837;52.064;113.478;2023-03-12T02:45:03;28.17;;;8.85;;
70414;SDS011;57837;52.064;113.478;2023-03-12T02:48:08;31.50;;;9.37;;
70414;SDS011;57837;52.064;113.478;2023-03-12T02:51:12;24.33;;;6.55;;
70414;SDS011;57837;52.064;113.478;2023-03-12T02:54:16;66.85;;;10.15;;
70414;SDS011;57837;52.064;113.478;2023-03-12T02:57:21;15.02;;;6.07;;
70414;SDS011;57837;52.064;113.478;2023-03-12T03:00:25;19.17;;;6.57;;
70414;SDS011;57837;52.064;113.478;2023-03-12T03:03:29;20.48;;;6.20;;
70414;SDS011;57837;52.064;113.478;2023-03-12T03:06:33;34.58;;;6.10;;
70414;SDS011;57837;52.064;113.478;2023-03-12T03:09:39;21.40;;;6.10;;
70414;SDS011;57837;52.064;113.478;2023-03-12T03:12:43;17.97;;;7.20;;
70414;SDS011;57837;52.064;113.478;2023-03-12T03:15:47;424.35;;;29.73;;
70414;SDS011;57837;52.064;113.478;2023-03-12T03:18:51;48.15;;;7.88;;
70414;SDS011;57837;52.064;113.478;2023-03-12T03:21:55;39.15;;;8.35;;
70414;SDS011;57837;52.064;113.478;2023-03-12T03:24:59;25.58;;;6.63;;
70414;SDS011;57837;52.064;113.478;2023-03-12T03:28:03;14.67;;;5.60;;
70414;SDS011;57837;52.064;113.478;2023-03-12T03:31:07;17.08;;;4.10;;
70414;SDS011;57837;52.064;113.478;2023-03-12T03:34:14;536.47;;;28.45;;
70414;SDS011;57837;52.064;113.478;2023-03-12T03:37:17;71.57;;;6.50;;
70414;SDS011;57837;52.064;113.478;2023-03-12T03:40:21;24.20;;;6.47;;
70414;SDS011;57837;52.064;113.478;2023-03-12T03:43:25;20.95;;;7.00;;
70414;SDS011;57837;52.064;113.478;2023-03-12T03:46:30;15.30;;;5.32;;
70414;SDS011;57837;52.064;113.478;2023-03-12T03:49:37;31.63;;;7.05;;
70414;SDS011;57837;52.064;113.478;2023-03-12T03:52:42;18.63;;;6.50;;
70414;SDS011;57837;52.064;113.478;2023-03-12T03:55:45;20.97;;;7.93;;
70414;SDS011;57837;52.064;113.478;2023-03-12T03:58:50;17.25;;;6.00;;
70414;SDS011;57837;52.064;113.478;2023-03-12T04:01:54;30.70;;;7.05;;
70414;SDS011;57837;52.064;113.478;2023-03-12T04:04:59;33.83;;;6.18;;
70414;SDS011;57837;52.064;113.478;2023-03-12T04:08:03;26.38;;;6.15;;
70414;SDS011;57837;52.064;113.478;2023-03-12T04:11:08;46.33;;;5.93;;
70414;SDS011;57837;52.064;113.478;2023-03-12T04:14:19;28.58;;;6.07;;
70414;SDS011;57837;52.064;113.478;2023-03-12T04:17:24;22.27;;;6.43;;
70414;SDS011;57837;52.064;113.478;2023-03-12T04:20:29;16.98;;;5.32;;
70414;SDS011;57837;52.064;113.478;2023-03-12T04:23:33;22.47;;;6.37;;
70414;SDS011;57837;52.064;113.478;2023-03-12T04:26:38;11.77;;;4.28;;
70414;SDS011;57837;52.064;113.478;2023-03-12T04:29:42;13.82;;;4.97;;
70414;SDS011;57837;52.064;113.478;2023-03-12T04:32:47;7.60;;;3.53;;
70414;SDS011;57837;52.064;113.478;2023-03-12T04:35:51;10.70;;;3.97;;
70414;SDS011;57837;52.064;113.478;2023-03-12T04:38:56;8.50;;;3.00;;
70414;SDS011;57837;52.064;113.478;2023-03-12T04:42:05;13.23;;;3.88;;
70414;SDS011;57837;52.064;113.478;2023-03-12T04:45:11;6.85;;;2.60;;
70414;SDS011;57837;52.064;113.478;2023-03-12T04:48:18;8.70;;;3.30;;
70414;SDS011;57837;52.064;113.478;2023-03-12T04:51:24;9.17;;;2.90;;
70414;SDS011;57837;52.064;113.478;2023-03-12T04:54:28;8.35;;;2.78;;
70414;SDS011;57837;52.064;113.478;2023-03-12T04:57:34;11.27;;;3.92;;
70414;SDS011;57837;52.064;113.478;2023-03-12T05:00:39;8.10;;;2.80;;
70414;SDS011;57837;52.064;113.478;2023-03-12T05:03:44;4.57;;;2.23;;
70414;SDS011;57837;52.064;113.478;2023-03-12T05:06:48;8.68;;;2.97;;
70414;SDS011;57837;52.064;113.478;2023-03-12T05:09:53;13.88;;;4.65;;
70414;SDS011;57837;52.064;113.478;2023-03-12T05:12:56;11.00;;;3.25;;
70414;SDS011;57837;52.064;113.478;2023-03-12T05:16:01;10.93;;;3.67;;
70414;SDS011;57837;52.064;113.478;2023-03-12T05:19:05;15.47;;;3.57;;
70414;SDS011;57837;52.064;113.478;2023-03-12T05:22:09;10.30;;;2.97;;
70414;SDS011;57837;52.064;113.478;2023-03-12T05:25:13;8.52;;;3.25;;
70414;SDS011;57837;52.064;113.478;2023-03-12T05:28:17;11.80;;;3.10;;
70414;SDS011;57837;52.064;113.478;2023-03-12T05:31:22;7.57;;;2.40;;
70414;SDS011;57837;52.064;113.478;2023-03-12T05:34:27;5.28;;;2.20;;
70414;SDS011;57837;52.064;113.478;2023-03-12T05:37:33;7.53;;;3.20;;
70414;SDS011;57837;52.064;113.478;2023-03-12T05:40:37;10.52;;;3.40;;
70414;SDS011;57837;52.064;113.478;2023-03-12T05:43:41;14.27;;;6.10;;
70414;SDS011;57837;52.064;113.478;2023-03-12T05:46:44;8.47;;;2.50;;
70414;SDS011;57837;52.064;113.478;2023-03-12T05:49:48;17.08;;;4.80;;
70414;SDS011;57837;52.064;113.478;2023-03-12T05:52:52;12.43;;;3.58;;
70414;SDS011;57837;52.064;113.478;2023-03-12T05:56:01;9.48;;;3.80;;
70414;SDS011;57837;52.064;113.478;2023-03-12T05:59:06;8.17;;;2.80;;
70414;SDS011;57837;52.064;113.478;2023-03-12T06:02:14;17.13;;;7.07;;
70414;SDS011;57837;52.064;113.478;2023-03-12T06:05:18;12.80;;;4.00;;
70414;SDS011;57837;52.064;113.478;2023-03-12T06:08:22;7.65;;;3.25;;
70414;SDS011;57837;52.064;113.478;2023-03-12T06:11:27;9.02;;;3.80;;
70414;SDS011;57837;52.064;113.478;2023-03-12T06:14:32;10.17;;;2.30;;
70414;SDS011;57837;52.064;113.478;2023-03-12T06:17:36;8.63;;;2.22;;
70414;SDS011;57837;52.064;113.478;2023-03-12T06:20:40;7.75;;;3.15;;
70414;SDS011;57837;52.064;113.478;2023-03-12T06:23:45;9.40;;;3.00;;
70414;SDS011;57837;52.064;113.478;2023-03-12T06:26:56;11.43;;;3.83;;
70414;SDS011;57837;52.064;113.478;2023-03-12T06:29:59;12.73;;;3.72;;
70414;SDS011;57837;52.064;113.478;2023-03-12T06:33:03;8.75;;;3.60;;
70414;SDS011;57837;52.064;113.478;2023-03-12T06:36:10;6.25;;;3.28;;
70414;SDS011;57837;52.064;113.478;2023-03-12T06:39:14;8.50;;;1.83;;
70414;SDS011;57837;52.064;113.478;2023-03-12T06:42:17;11.47;;;2.40;;
70414;SDS011;57837;52.064;113.478;2023-03-12T06:45:23;4.75;;;1.52;;
70414;SDS011;57837;52.064;113.478;2023-03-12T06:48:27;13.88;;;6.70;;
70414;SDS011;57837;52.064;113.478;2023-03-12T06:51:31;13.75;;;3.67;;
70414;SDS011;57837;52.064;113.478;2023-03-12T06:54:35;4.13;;;1.55;;
70414;SDS011;57837;52.064;113.478;2023-03-12T06:57:39;6.37;;;2.20;;
70414;SDS011;57837;52.064;113.478;2023-03-12T07:00:43;12.90;;;4.25;;
70414;SDS011;57837;52.064;113.478;2023-03-12T07:03:47;3.70;;;1.50;;
70414;SDS011;57837;52.064;113.478;2023-03-12T07:06:50;8.55;;;2.20;;
70414;SDS011;57837;52.064;113.478;2023-03-12T07:09:54;4.20;;;1.20;;
70414;SDS011;57837;52.064;113.478;2023-03-12T07:12:58;4.23;;;1.60;;
70414;SDS011;57837;52.064;113.478;2023-03-12T07:16:02;7.60;;;1.92;;
70414;SDS011;57837;52.064;113.478;2023-03-12T07:19:06;5.40;;;1.90;;
70414;SDS011;57837;52.064;113.478;2023-03-12T07:22:10;4.72;;;1.60;;
70414;SDS011;57837;52.064;113.478;2023-03-12T07:25:14;5.13;;;1.63;;
70414;SDS011;57837;52.064;113.478;2023-03-12T07:28:20;3.87;;;1.70;;
70414;SDS011;57837;52.064;113.478;2023-03-12T07:31:24;6.03;;;2.08;;
70414;SDS011;57837;52.064;113.478;2023-03-12T07:34:29;4.38;;;1.63;;
70414;SDS011;57837;52.064;113.478;2023-03-12T07:37:33;13.15;;;5.05;;
70414;SDS011;57837;52.064;113.478;2023-03-12T07:40:37;6.60;;;2.90;;
70414;SDS011;57837;52.064;113.478;2023-03-12T07:43:40;11.50;;;4.43;;
70414;SDS011;57837;52.064;113.478;2023-03-12T07:46:44;5.80;;;1.60;;
70414;SDS011;57837;52.064;113.478;2023-03-12T07:49:48;6.05;;;2.15;;
70414;SDS011;57837;52.064;113.478;2023-03-12T07:52:52;13.80;;;3.10;;
70414;SDS011;57837;52.064;113.478;2023-03-12T07:55:56;8.82;;;3.90;;
70414;SDS011;57837;52.064;113.478;2023-03-12T07:59:24;2.97;;;1.20;;
70414;SDS011;57837;52.064;113.478;2023-03-12T08:02:29;6.82;;;2.80;;
70414;SDS011;57837;52.064;113.478;2023-03-12T08:05:32;8.15;;;2.35;;
70414;SDS011;57837;52.064;113.478;2023-03-12T08:08:36;9.85;;;2.72;;
70414;SDS011;57837;52.064;113.478;2023-03-12T08:11:42;7.22;;;2.28;;
70414;SDS011;57837;52.064;113.478;2023-03-12T08:14:46;12.83;;;2.30;;
70414;SDS011;57837;52.064;113.478;2023-03-12T08:17:50;7.57;;;2.55;;
70414;SDS011;57837;52.064;113.478;2023-03-12T08:20:54;6.57;;;2.63;;
70414;SDS011;57837;52.064;113.478;2023-03-12T08:23:57;27.70;;;7.72;;
70414;SDS011;57837;52.064;113.478;2023-03-12T08:27:00;18.30;;;6.68;;
70414;SDS011;57837;52.064;113.478;2023-03-12T08:30:05;7.83;;;3.30;;
70414;SDS011;57837;52.064;113.478;2023-03-12T08:33:09;12.13;;;2.90;;
70414;SDS011;57837;52.064;113.478;2023-03-12T08:36:13;9.77;;;3.50;;
70414;SDS011;57837;52.064;113.478;2023-03-12T08:39:17;15.63;;;4.95;;
70414;SDS011;57837;52.064;113.478;2023-03-12T08:42:20;12.50;;;3.95;;
70414;SDS011;57837;52.064;113.478;2023-03-12T08:45:23;7.43;;;2.90;;
70414;SDS011;57837;52.064;113.478;2023-03-12T08:48:26;15.68;;;4.32;;
70414;SDS011;57837;52.064;113.478;2023-03-12T08:51:31;6.60;;;2.92;;
70414;SDS011;57837;52.064;113.478;2023-03-12T08:54:34;8.48;;;2.53;;
70414;SDS011;57837;52.064;113.478;2023-03-12T08:57:37;7.68;;;2.60;;
70414;SDS011;57837;52.064;113.478;2023-03-12T09:00:41;10.13;;;3.20;;
70414;SDS011;57837;52.064;113.478;2023-03-12T09:03:43;8.63;;;2.60;;
70414;SDS011;57837;52.064;113.478;2023-03-12T09:06:49;7.70;;;3.15;;
70414;SDS011;57837;52.064;113.478;2023-03-12T09:09:53;7.63;;;3.08;;
70414;SDS011;57837;52.064;113.478;2023-03-12T09:12:57;16.05;;;6.53;;
70414;SDS011;57837;52.064;113.478;2023-03-12T09:16:01;13.50;;;5.60;;
70414;SDS011;57837;52.064;113.478;2023-03-12T09:19:05;11.23;;;4.95;;
70414;SDS011;57837;52.064;113.478;2023-03-12T09:22:08;13.38;;;5.40;;
70414;SDS011;57837;52.064;113.478;2023-03-12T09:25:12;19.42;;;7.90;;
70414;SDS011;57837;52.064;113.478;2023-03-12T09:28:15;16.65;;;5.78;;
70414;SDS011;57837;52.064;113.478;2023-03-12T09:31:19;15.97;;;6.70;;
70414;SDS011;57837;52.064;113.478;2023-03-12T09:34:22;33.28;;;7.90;;
70414;SDS011;57837;52.064;113.478;2023-03-12T09:37:26;15.40;;;5.25;;
70414;SDS011;57837;52.064;113.478;2023-03-12T09:40:31;14.13;;;5.50;;
70414;SDS011;57837;52.064;113.478;2023-03-12T09:43:42;11.38;;;4.43;;
70414;SDS011;57837;52.064;113.478;2023-03-12T09:47:07;15.03;;;4.27;;
70414;SDS011;57837;52.064;113.478;2023-03-12T09:53:53;10.02;;;4.70;;
70414;SDS011;57837;52.064;113.478;2023-03-12T09:57:02;8.75;;;5.07;;
70414;SDS011;57837;52.064;113.478;2023-03-12T10:00:11;10.23;;;5.15;;
70414;SDS011;57837;52.064;113.478;2023-03-12T10:03:22;14.33;;;4.27;;
70414;SDS011;57837;52.064;113.478;2023-03-12T10:06:51;23.27;;;7.82;;
70414;SDS011;57837;52.064;113.478;2023-03-12T10:17:07;15.23;;;6.63;;
70414;SDS011;57837;52.064;113.478;2023-03-12T10:27:21;18.25;;;6.20;;
70414;SDS011;57837;52.064;113.478;2023-03-12T10:30:28;14.07;;;4.25;;
70414;SDS011;57837;52.064;113.478;2023-03-12T10:36:58;9.53;;;3.20;;
70414;SDS011;57837;52.064;113.478;2023-03-12T10:40:10;9.05;;;3.70;;
70414;SDS011;57837;52.064;113.478;2023-03-12T10:43:18;14.52;;;5.60;;
70414;SDS011;57837;52.064;113.478;2023-03-12T10:49:40;24.23;;;7.40;;
70414;SDS011;57837;52.064;113.478;2023-03-12T10:52:43;11.23;;;4.65;;
70414;SDS011;57837;52.064;113.478;2023-03-12T10:59:07;11.82;;;4.03;;
70414;SDS011;57837;52.064;113.478;2023-03-12T11:05:34;27.10;;;9.13;;
70414;SDS011;57837;52.064;113.478;2023-03-12T11:12:23;17.60;;;7.00;;
70414;SDS011;57837;52.064;113.478;2023-03-12T11:15:39;7.95;;;3.28;;
70414;SDS011;57837;52.064;113.478;2023-03-12T11:18:54;20.10;;;4.45;;
70414;SDS011;57837;52.064;113.478;2023-03-12T11:22:04;13.00;;;4.88;;
70414;SDS011;57837;52.064;113.478;2023-03-12T11:25:20;16.07;;;5.10;;
70414;SDS011;57837;52.064;113.478;2023-03-12T11:28:30;14.80;;;5.28;;
70414;SDS011;57837;52.064;113.478;2023-03-12T11:31:44;13.43;;;3.90;;
70414;SDS011;57837;52.064;113.478;2023-03-12T11:35:11;16.73;;;6.68;;
70414;SDS011;57837;52.064;113.478;2023-03-12T11:38:17;8.83;;;3.37;;
70414;SDS011;57837;52.064;113.478;2023-03-12T11:48:24;15.55;;;3.53;;
70414;SDS011;57837;52.064;113.478;2023-03-12T11:55:15;9.73;;;3.88;;
70414;SDS011;57837;52.064;113.478;2023-03-12T12:05:37;10.80;;;2.93;;
70414;SDS011;57837;52.064;113.478;2023-03-12T12:32:00;13.80;;;3.53;;
70414;SDS011;57837;52.064;113.478;2023-03-12T12:38:41;12.40;;;5.70;;
70414;SDS011;57837;52.064;113.478;2023-03-12T12:41:53;11.40;;;3.65;;
70414;SDS011;57837;52.064;113.478;2023-03-12T12:45:00;14.37;;;6.17;;
70414;SDS011;57837;52.064;113.478;2023-03-12T12:48:06;12.05;;;2.80;;
70414;SDS011;57837;52.064;113.478;2023-03-12T12:51:24;15.43;;;3.08;;
70414;SDS011;57837;52.064;113.478;2023-03-12T12:57:43;9.20;;;1.73;;
70414;SDS011;57837;52.064;113.478;2023-03-12T13:00:52;10.13;;;1.70;;
70414;SDS011;57837;52.064;113.478;2023-03-12T13:04:23;3.90;;;1.58;;
70414;SDS011;57837;52.064;113.478;2023-03-12T13:13:35;8.63;;;2.30;;
70414;SDS011;57837;52.064;113.478;2023-03-12T13:16:42;5.65;;;2.03;;
70414;SDS011;57837;52.064;113.478;2023-03-12T13:19:51;6.47;;;2.57;;
70414;SDS011;57837;52.064;113.478;2023-03-12T13:26:41;12.15;;;4.55;;
70414;SDS011;57837;52.064;113.478;2023-03-12T13:30:02;9.55;;;3.28;;
70414;SDS011;57837;52.064;113.478;2023-03-12T13:33:49;4.97;;;1.80;;
70414;SDS011;57837;52.064;113.478;2023-03-12T13:36:59;5.13;;;1.77;;
70414;SDS011;57837;52.064;113.478;2023-03-12T13:46:38;8.20;;;2.55;;
70414;SDS011;57837;52.064;113.478;2023-03-12T13:53:14;5.97;;;1.67;;
70414;SDS011;57837;52.064;113.478;2023-03-12T13:56:25;3.47;;;1.40;;
70414;SDS011;57837;52.064;113.478;2023-03-12T13:59:30;8.05;;;1.33;;
70414;SDS011;57837;52.064;113.478;2023-03-12T14:02:35;8.77;;;1.45;;
70414;SDS011;57837;52.064;113.478;2023-03-12T14:05:49;7.23;;;1.50;;
70414;SDS011;57837;52.064;113.478;2023-03-12T14:19:18;4.43;;;1.48;;
70414;SDS011;57837;52.064;113.478;2023-03-12T14:22:33;6.55;;;2.10;;
70414;SDS011;57837;52.064;113.478;2023-03-12T14:25:42;5.40;;;2.67;;
70414;SDS011;57837;52.064;113.478;2023-03-12T14:28:49;5.33;;;1.90;;
70414;SDS011;57837;52.064;113.478;2023-03-12T14:32:02;2.70;;;1.30;;
70414;SDS011;57837;52.064;113.478;2023-03-12T14:35:14;28.58;;;3.25;;
70414;SDS011;57837;52.064;113.478;2023-03-12T14:38:25;4.47;;;2.25;;
70414;SDS011;57837;52.064;113.478;2023-03-12T14:41:44;4.05;;;1.67;;
70414;SDS011;57837;52.064;113.478;2023-03-12T14:44:58;6.10;;;1.45;;
70414;SDS011;57837;52.064;113.478;2023-03-12T14:48:09;5.70;;;1.75;;
70414;SDS011;57837;52.064;113.478;2023-03-12T14:51:17;5.17;;;1.40;;
70414;SDS011;57837;52.064;113.478;2023-03-12T14:54:32;9.00;;;3.28;;
70414;SDS011;57837;52.064;113.478;2023-03-12T14:57:35;7.15;;;2.17;;
70414;SDS011;57837;52.064;113.478;2023-03-12T15:00:39;5.40;;;1.63;;
70414;SDS011;57837;52.064;113.478;2023-03-12T15:03:46;9.60;;;1.73;;
70414;SDS011;57837;52.064;113.478;2023-03-12T15:06:55;2.80;;;1.23;;
70414;SDS011;57837;52.064;113.478;2023-03-12T15:10:01;6.95;;;2.60;;
70414;SDS011;57837;52.064;113.478;2023-03-12T15:13:08;5.78;;;1.42;;
70414;SDS011;57837;52.064;113.478;2023-03-12T15:16:14;3.58;;;1.65;;
70414;SDS011;57837;52.064;113.478;2023-03-12T15:19:20;7.35;;;2.03;;
70414;SDS011;57837;52.064;113.478;2023-03-12T15:22:28;9.53;;;2.17;;
70414;SDS011;57837;52.064;113.478;2023-03-12T15:25:32;3.22;;;1.73;;
70414;SDS011;57837;52.064;113.478;2023-03-12T15:28:37;3.17;;;1.42;;
70414;SDS011;57837;52.064;113.478;2023-03-12T15:31:42;3.07;;;1.33;;
70414;SDS011;57837;52.064;113.478;2023-03-12T15:34:53;10.60;;;2.08;;
70414;SDS011;57837;52.064;113.478;2023-03-12T15:38:01;3.22;;;1.35;;
70414;SDS011;57837;52.064;113.478;2023-03-12T15:41:07;3.25;;;1.08;;
70414;SDS011;57837;52.064;113.478;2023-03-12T15:44:27;6.32;;;1.50;;
70414;SDS011;57837;52.064;113.478;2023-03-12T15:47:38;5.18;;;1.63;;
70414;SDS011;57837;52.064;113.478;2023-03-12T15:50:42;5.70;;;1.85;;
70414;SDS011;57837;52.064;113.478;2023-03-12T15:53:57;5.83;;;1.20;;
70414;SDS011;57837;52.064;113.478;2023-03-12T15:57:19;6.65;;;1.73;;
70414;SDS011;57837;52.064;113.478;2023-03-12T16:03:45;4.50;;;1.90;;
70414;SDS011;57837;52.064;113.478;2023-03-12T16:06:49;5.55;;;2.00;;
70414;SDS011;57837;52.064;113.478;2023-03-12T16:09:55;4.50;;;1.60;;
70414;SDS011;57837;52.064;113.478;2023-03-12T16:13:00;8.93;;;2.20;;
70414;SDS011;57837;52.064;113.478;2023-03-12T16:16:05;3.10;;;1.10;;
70414;SDS011;57837;52.064;113.478;2023-03-12T16:19:28;6.38;;;1.33;;
70414;SDS011;57837;52.064;113.478;2023-03-12T16:22:34;4.82;;;1.70;;
70414;SDS011;57837;52.064;113.478;2023-03-12T16:25:37;6.13;;;2.00;;
70414;SDS011;57837;52.064;113.478;2023-03-12T16:28:43;8.23;;;5.28;;
70414;SDS011;57837;52.064;113.478;2023-03-12T16:31:50;5.32;;;2.25;;
70414;SDS011;57837;52.064;113.478;2023-03-12T16:34:56;7.47;;;2.93;;
70414;SDS011;57837;52.064;113.478;2023-03-12T16:38:00;4.43;;;1.73;;
70414;SDS011;57837;52.064;113.478;2023-03-12T16:41:05;4.63;;;1.60;;
70414;SDS011;57837;52.064;113.478;2023-03-12T16:44:18;6.65;;;1.58;;
70414;SDS011;57837;52.064;113.478;2023-03-12T16:47:23;6.55;;;1.60;;
70414;SDS011;57837;52.064;113.478;2023-03-12T16:50:27;3.33;;;1.45;;
70414;SDS011;57837;52.064;113.478;2023-03-12T16:53:30;4.43;;;1.20;;
70414;SDS011;57837;52.064;113.478;2023-03-12T16:56:34;3.63;;;1.30;;
70414;SDS011;57837;52.064;113.478;2023-03-12T16:59:38;4.75;;;0.82;;
70414;SDS011;57837;52.064;113.478;2023-03-12T17:02:42;2.95;;;1.10;;
70414;SDS011;57837;52.064;113.478;2023-03-12T17:05:45;2.83;;;0.93;;
70414;SDS011;57837;52.064;113.478;2023-03-12T17:08:48;4.93;;;1.10;;
70414;SDS011;57837;52.064;113.478;2023-03-12T17:11:52;4.25;;;1.40;;
70414;SDS011;57837;52.064;113.478;2023-03-12T17:14:55;3.80;;;1.33;;
70414;SDS011;57837;52.064;113.478;2023-03-12T17:18:00;2.85;;;1.00;;
70414;SDS011;57837;52.064;113.478;2023-03-12T17:21:05;2.05;;;0.95;;
70414;SDS011;57837;52.064;113.478;2023-03-12T17:24:11;6.05;;;1.25;;
70414;SDS011;57837;52.064;113.478;2023-03-12T17:27:15;2.10;;;0.80;;
70414;SDS011;57837;52.064;113.478;2023-03-12T17:30:19;2.05;;;0.82;;
70414;SDS011;57837;52.064;113.478;2023-03-12T17:33:23;3.28;;;1.02;;
70414;SDS011;57837;52.064;113.478;2023-03-12T17:36:29;3.30;;;1.43;;
70414;SDS011;57837;52.064;113.478;2023-03-12T17:39:33;2.22;;;1.00;;
70414;SDS011;57837;52.064;113.478;2023-03-12T17:42:37;7.85;;;1.40;;
70414;SDS011;57837;52.064;113.478;2023-03-12T17:45:41;2.53;;;1.00;;
70414;SDS011;57837;52.064;113.478;2023-03-12T17:48:44;4.47;;;1.30;;
70414;SDS011;57837;52.064;113.478;2023-03-12T17:51:47;3.75;;;1.05;;
70414;SDS011;57837;52.064;113.478;2023-03-12T17:54:50;3.35;;;1.08;;
70414;SDS011;57837;52.064;113.478;2023-03-12T17:57:53;2.97;;;1.30;;
70414;SDS011;57837;52.064;113.478;2023-03-12T18:00:59;4.93;;;1.17;;
70414;SDS011;57837;52.064;113.478;2023-03-12T18:04:02;4.55;;;1.35;;
70414;SDS011;57837;52.064;113.478;2023-03-12T18:07:06;2.57;;;1.00;;
70414;SDS011;57837;52.064;113.478;2023-03-12T18:10:09;2.00;;;0.60;;
70414;SDS011;57837;52.064;113.478;2023-03-12T18:13:14;5.97;;;1.33;;
70414;SDS011;57837;52.064;113.478;2023-03-12T18:16:17;2.85;;;1.10;;
70414;SDS011;57837;52.064;113.478;2023-03-12T18:19:20;4.97;;;1.30;;
70414;SDS011;57837;52.064;113.478;2023-03-12T18:22:24;3.55;;;1.20;;
70414;SDS011;57837;52.064;113.478;2023-03-12T18:25:28;3.25;;;0.88;;
70414;SDS011;57837;52.064;113.478;2023-03-12T18:28:31;4.53;;;1.10;;
70414;SDS011;57837;52.064;113.478;2023-03-12T18:31:34;5.93;;;1.75;;
70414;SDS011;57837;52.064;113.478;2023-03-12T18:34:38;4.22;;;1.05;;
70414;SDS011;57837;52.064;113.478;2023-03-12T18:37:43;4.27;;;1.07;;
70414;SDS011;57837;52.064;113.478;2023-03-12T18:40:47;2.08;;;1.08;;
70414;SDS011;57837;52.064;113.478;2023-03-12T18:43:52;2.85;;;1.10;;
70414;SDS011;57837;52.064;113.478;2023-03-12T18:46:55;4.20;;;1.40;;
70414;SDS011;57837;52.064;113.478;2023-03-12T18:49:58;2.33;;;1.08;;
70414;SDS011;57837;52.064;113.478;2023-03-12T18:53:02;2.05;;;1.10;;
70414;SDS011;57837;52.064;113.478;2023-03-12T18:56:05;2.38;;;1.08;;
70414;SDS011;57837;52.064;113.478;2023-03-12T18:59:08;2.93;;;1.20;;
70414;SDS011;57837;52.064;113.478;2023-03-12T19:02:12;2.67;;;1.10;;
70414;SDS011;57837;52.064;113.478;2023-03-12T19:05:15;2.88;;;1.15;;
70414;SDS011;57837;52.064;113.478;2023-03-12T19:08:18;7.93;;;1.50;;
70414;SDS011;57837;52.064;113.478;2023-03-12T19:11:22;1.95;;;1.00;;
70414;SDS011;57837;52.064;113.478;2023-03-12T19:14:25;3.05;;;0.90;;
70414;SDS011;57837;52.064;113.478;2023-03-12T19:17:28;6.35;;;1.45;;
70414;SDS011;57837;52.064;113.478;2023-03-12T19:20:32;2.45;;;1.00;;
70414;SDS011;57837;52.064;113.478;2023-03-12T19:23:35;2.78;;;0.90;;
70414;SDS011;57837;52.064;113.478;2023-03-12T19:26:39;2.92;;;0.90;;
70414;SDS011;57837;52.064;113.478;2023-03-12T19:29:42;7.93;;;1.13;;
70414;SDS011;57837;52.064;113.478;2023-03-12T19:32:46;2.05;;;0.80;;
70414;SDS011;57837;52.064;113.478;2023-03-12T19:35:50;1.67;;;0.90;;
70414;SDS011;57837;52.064;113.478;2023-03-12T19:38:53;1.70;;;0.80;;
70414;SDS011;57837;52.064;113.478;2023-03-12T19:41:56;2.47;;;1.02;;
70414;SDS011;57837;52.064;113.478;2023-03-12T19:45:00;1.48;;;0.68;;
70414;SDS011;57837;52.064;113.478;2023-03-12T19:48:03;3.22;;;1.00;;
70414;SDS011;57837;52.064;113.478;2023-03-12T19:51:07;1.92;;;0.80;;
70414;SDS011;57837;52.064;113.478;2023-03-12T19:54:12;6.05;;;1.00;;
70414;SDS011;57837;52.064;113.478;2023-03-12T19:57:16;8.43;;;1.23;;
70414;SDS011;57837;52.064;113.478;2023-03-12T20:00:21;1.60;;;0.80;;
70414;SDS011;57837;52.064;113.478;2023-03-12T20:03:25;4.20;;;1.00;;